createdAt,value
2022-11-10T00:01:37.433Z,100365.88
2022-11-10T00:04:24.043Z,100363.81
2022-11-10T00:07:12.436Z,100370.03
2022-11-10T00:09:59.244Z,100365.50
2022-11-10T00:12:46.653Z,100371.88
2022-11-10T00:15:50.575Z,100373.53
2022-11-10T00:18:36.859Z,100380.91
2022-11-10T00:21:23.747Z,100385.94
2022-11-10T00:24:12.115Z,100391.47
2022-11-10T00:26:58.874Z,100394.97
2022-11-10T00:29:46.411Z,100393.91
2022-11-10T00:32:33.204Z,100404.59
2022-11-10T00:35:20.019Z,100402.81
2022-11-10T00:38:06.215Z,100403.59
2022-11-10T00:40:52.371Z,100411.94
2022-11-10T00:43:38.784Z,100415.28
2022-11-10T00:46:26.564Z,100419.31
2022-11-10T00:49:13.500Z,100428.16
2022-11-10T00:52:00.207Z,100429.50
2022-11-10T00:54:46.415Z,100433.75
2022-11-10T00:57:33.678Z,100441.13
2022-11-10T01:00:20.040Z,100447.53
2022-11-10T01:03:07.592Z,100453.75
2022-11-10T01:05:54.399Z,100466.19
2022-11-10T01:08:41.402Z,100475.31
2022-11-10T01:11:28.702Z,100479.66
2022-11-10T01:14:14.848Z,100473.72
2022-11-10T01:17:01.258Z,100482.25
2022-11-10T01:19:48.698Z,100480.38
2022-11-10T01:22:35.288Z,100488.09
2022-11-10T01:25:22.273Z,100490.75
2022-11-10T01:28:08.685Z,100489.78
2022-11-10T01:30:58.496Z,100492.75
2022-11-10T01:33:44.701Z,100499.91
2022-11-10T01:36:32.260Z,100500.50
2022-11-10T01:39:18.760Z,100506.34
2022-11-10T01:42:06.161Z,100514.38
2022-11-10T01:45:12.065Z,100507.09
2022-11-10T01:48:01.273Z,100517.47
2022-11-10T01:50:48.992Z,100509.94
2022-11-10T01:53:38.461Z,100519.69
2022-11-10T01:56:26.038Z,100508.94
2022-11-10T01:59:16.441Z,100517.94
2022-11-10T02:02:07.899Z,100524.47
2022-11-10T02:04:54.563Z,100527.91
2022-11-10T02:07:41.343Z,100520.88
2022-11-10T02:10:28.997Z,100530.03
2022-11-10T02:13:15.302Z,100520.16
2022-11-10T02:16:01.743Z,100521.75
2022-11-10T02:18:47.789Z,100517.25
2022-11-10T02:21:36.122Z,100528.13
2022-11-10T02:24:22.755Z,100526.41
2022-11-10T02:27:09.407Z,100528.31
2022-11-10T02:29:55.825Z,100532.03
2022-11-10T02:32:42.257Z,100535.47
2022-11-10T02:35:28.728Z,100536.28
2022-11-10T02:38:16.482Z,100534.84
2022-11-10T02:41:02.793Z,100540.66
2022-11-10T02:43:49.547Z,100542.47
2022-11-10T02:46:37.590Z,100544.38
2022-11-10T02:49:23.819Z,100532.94
2022-11-10T02:52:10.095Z,100531.91
2022-11-10T02:54:57.558Z,100534.31
2022-11-10T02:57:44.120Z,100532.06
2022-11-10T03:00:30.447Z,100533.56
2022-11-10T03:03:16.762Z,100530.97
2022-11-10T03:06:03.040Z,100536.00
2022-11-10T03:08:49.496Z,100538.06
2022-11-10T03:11:37.179Z,100540.75
2022-11-10T03:14:23.955Z,100555.44
2022-11-10T03:17:12.164Z,100559.53
2022-11-10T03:19:58.574Z,100577.97
2022-11-10T03:22:44.872Z,100584.22
2022-11-10T03:25:31.359Z,100585.81
2022-11-10T03:28:19.021Z,100585.41
2022-11-10T03:31:05.627Z,100581.69
2022-11-10T03:33:54.849Z,100585.59
2022-11-10T03:36:41.553Z,100584.53
2022-11-10T03:39:28.108Z,100591.44
2022-11-10T03:42:14.417Z,100587.56
2022-11-10T03:45:03.220Z,100594.34
2022-11-10T03:47:50.484Z,100608.50
2022-11-10T03:50:37.881Z,100614.28
2022-11-10T03:53:24.336Z,100624.88
2022-11-10T03:56:11.030Z,100619.91
2022-11-10T03:58:57.473Z,100618.38
2022-11-10T04:01:45.262Z,100629.03
2022-11-10T04:04:57.988Z,100634.91
2022-11-10T04:08:01.398Z,100648.09
2022-11-10T04:10:48.992Z,100647.50
2022-11-10T04:13:52.893Z,100646.13
2022-11-10T04:16:42.283Z,100663.47
2022-11-10T04:19:31.589Z,100654.28
2022-11-10T04:22:37.448Z,100652.09
2022-11-10T04:25:23.387Z,100647.31
2022-11-10T04:28:09.468Z,100659.94
2022-11-10T04:30:55.670Z,100649.81
2022-11-10T04:33:43.964Z,100657.56
2022-11-10T04:36:35.258Z,100670.00
2022-11-10T04:39:22.630Z,100669.84
2022-11-10T04:42:09.258Z,100674.72
2022-11-10T04:44:55.889Z,100666.94
2022-11-10T04:47:43.418Z,100664.94
2022-11-10T04:50:30.185Z,100659.63
2022-11-10T04:53:17.983Z,100665.91
2022-11-10T04:56:04.616Z,100668.50
2022-11-10T04:58:51.387Z,100675.09
2022-11-10T05:01:37.689Z,100673.81
2022-11-10T05:04:25.092Z,100677.25
2022-11-10T05:07:11.818Z,100688.16
2022-11-10T05:09:59.304Z,100695.00
2022-11-10T05:12:45.694Z,100702.25
2022-11-10T05:15:34.463Z,100715.84
2022-11-10T05:18:21.952Z,100715.56
2022-11-10T05:21:10.676Z,100720.16
2022-11-10T05:23:56.962Z,100723.78
2022-11-10T05:26:44.801Z,100727.38
2022-11-10T05:29:34.717Z,100745.53
2022-11-10T05:32:21.466Z,100743.34
2022-11-10T05:35:08.001Z,100742.69
2022-11-10T05:37:56.963Z,100755.97
2022-11-10T05:40:43.415Z,100749.81
2022-11-10T05:43:32.271Z,100760.47
2022-11-10T05:46:18.247Z,100766.91
2022-11-10T05:49:04.513Z,100765.97
2022-11-10T05:51:51.506Z,100780.41
2022-11-10T05:54:38.000Z,100783.28
2022-11-10T05:57:24.591Z,100780.19
2022-11-10T06:00:13.195Z,100789.06
2022-11-10T06:03:00.565Z,100785.16
2022-11-10T06:05:47.658Z,100781.66
2022-11-10T06:08:34.094Z,100787.25
2022-11-10T06:11:21.049Z,100791.94
2022-11-10T06:14:07.316Z,100811.50
2022-11-10T06:16:54.530Z,100808.50
2022-11-10T06:19:40.956Z,100818.00
2022-11-10T06:22:27.865Z,100822.13
2022-11-10T06:25:14.190Z,100827.66
2022-11-10T06:28:01.353Z,100831.38
2022-11-10T06:30:48.090Z,100843.72
2022-11-10T06:33:38.499Z,100864.28
2022-11-10T06:36:25.546Z,100873.59
2022-11-10T06:39:12.928Z,100877.19
2022-11-10T06:41:59.250Z,100890.81
2022-11-10T06:44:45.469Z,100898.81
2022-11-10T06:47:34.258Z,100903.97
2022-11-10T06:50:22.913Z,100912.47
2022-11-10T06:53:12.010Z,100910.28
2022-11-10T06:55:58.659Z,100914.63
2022-11-10T06:58:45.396Z,100908.69
2022-11-10T07:01:32.018Z,100913.91
2022-11-10T07:04:20.075Z,100910.47
2022-11-10T07:07:08.287Z,100919.09
2022-11-10T07:09:54.706Z,100926.13
2022-11-10T07:12:41.457Z,100924.44
2022-11-10T07:15:28.276Z,100924.88
2022-11-10T07:18:15.754Z,100930.03
2022-11-10T07:21:03.261Z,100933.34
2022-11-10T07:23:51.026Z,100946.53
2022-11-10T07:26:37.435Z,100948.03
2022-11-10T07:29:24.164Z,100960.97
2022-11-10T07:32:10.690Z,100970.81
2022-11-10T07:34:59.382Z,100972.97
2022-11-10T07:37:45.672Z,100974.91
2022-11-10T07:40:33.223Z,100990.28
2022-11-10T07:43:20.139Z,100989.72
2022-11-10T07:46:07.115Z,100992.16
2022-11-10T07:48:54.963Z,100992.22
2022-11-10T07:51:41.567Z,100997.34
2022-11-10T07:54:28.112Z,101003.13
2022-11-10T07:57:15.976Z,101004.38
2022-11-10T08:00:02.115Z,101011.34
2022-11-10T08:02:48.897Z,101008.19
2022-11-10T08:05:37.780Z,101019.34
2022-11-10T08:08:24.868Z,101019.88
2022-11-10T08:11:11.269Z,101027.19
2022-11-10T08:13:59.273Z,101031.09
2022-11-10T08:16:45.599Z,101025.41
2022-11-10T08:19:31.700Z,101039.78
2022-11-10T08:22:18.362Z,101050.16
2022-11-10T08:25:04.815Z,101055.09
2022-11-10T08:27:50.955Z,101056.97
2022-11-10T08:30:39.368Z,101060.31
2022-11-10T08:33:26.102Z,101057.78
2022-11-10T08:36:12.410Z,101066.25
2022-11-10T08:38:58.826Z,101066.44
2022-11-10T08:41:47.469Z,101064.06
2022-11-10T08:44:34.818Z,101065.56
2022-11-10T08:47:22.941Z,101078.94
2022-11-10T08:50:11.922Z,101078.38
2022-11-10T08:52:58.708Z,101087.16
2022-11-10T08:55:45.344Z,101084.03
2022-11-10T08:58:31.743Z,101097.81
2022-11-10T09:01:19.610Z,101099.59
2022-11-10T09:04:08.724Z,101089.84
2022-11-10T09:06:58.038Z,101101.28
2022-11-10T09:09:46.691Z,101114.47
2022-11-10T09:12:44.034Z,101118.28
2022-11-10T09:15:31.206Z,101123.31
2022-11-10T09:18:18.711Z,101130.38
2022-11-10T09:21:11.953Z,101126.56
2022-11-10T09:23:58.486Z,101130.56
2022-11-10T09:26:47.600Z,101130.91
2022-11-10T09:29:34.063Z,101154.50
2022-11-10T09:32:20.666Z,101139.13
2022-11-10T09:35:07.898Z,101156.25
2022-11-10T09:37:57.109Z,101167.53
2022-11-10T09:40:59.352Z,101173.09
2022-11-10T09:43:49.838Z,101177.06
2022-11-10T09:46:39.535Z,101177.22
2022-11-10T09:49:35.175Z,101175.38
2022-11-10T09:52:24.351Z,101180.13
2022-11-10T09:55:20.777Z,101178.75
2022-11-10T09:58:06.923Z,101184.84
2022-11-10T10:01:02.713Z,101190.16
2022-11-10T10:03:50.326Z,101195.63
2022-11-10T10:07:04.868Z,101191.59
2022-11-10T10:09:55.356Z,101200.25
2022-11-10T10:12:59.238Z,101204.75
2022-11-10T10:15:54.051Z,101204.38
2022-11-10T10:18:46.783Z,101207.84
2022-11-10T10:21:44.496Z,101212.00
2022-11-10T10:24:32.546Z,101207.28
2022-11-10T10:27:26.032Z,101213.88
2022-11-10T10:30:18.421Z,101214.41
2022-11-10T10:33:12.934Z,101215.88
2022-11-10T10:36:01.683Z,101219.34
2022-11-10T10:38:49.184Z,101233.19
2022-11-10T10:41:38.623Z,101241.06
2022-11-10T10:44:25.146Z,101242.13
2022-11-10T10:47:12.746Z,101238.75
2022-11-10T10:50:16.935Z,101238.03
2022-11-10T10:53:08.433Z,101218.84
2022-11-10T10:56:00.053Z,101213.69
2022-11-10T10:58:54.321Z,101216.97
2022-11-10T11:01:41.229Z,101216.69
2022-11-10T11:04:31.271Z,101222.91
2022-11-10T11:07:22.601Z,101221.94
2022-11-10T11:10:19.229Z,101219.16
2022-11-10T11:13:14.545Z,101217.22
2022-11-10T11:16:03.545Z,101217.25
2022-11-10T11:18:50.526Z,101219.13
2022-11-10T11:21:44.991Z,101220.59
2022-11-10T11:24:35.318Z,101234.31
2022-11-10T11:27:43.107Z,101233.13
2022-11-10T11:30:33.211Z,101232.50
2022-11-10T11:33:26.230Z,101225.09
2022-11-10T11:36:18.511Z,101235.19
2022-11-10T11:39:13.656Z,101233.06
2022-11-10T11:42:08.289Z,101231.78
2022-11-10T11:45:04.863Z,101228.31
2022-11-10T11:48:00.917Z,101231.97
2022-11-10T11:50:51.834Z,101231.09
2022-11-10T11:53:42.027Z,101224.84
2022-11-10T11:56:33.588Z,101235.63
2022-11-10T11:59:29.069Z,101240.31
2022-11-10T12:02:30.290Z,101241.53
2022-11-10T12:05:24.511Z,101247.03
2022-11-10T12:08:17.014Z,101239.94
2022-11-10T12:11:08.972Z,101243.16
2022-11-10T12:14:03.186Z,101239.72
2022-11-10T12:16:53.283Z,101230.53
2022-11-10T12:19:43.362Z,101226.97
2022-11-10T12:22:34.932Z,101234.78
2022-11-10T12:25:24.379Z,101217.72
2022-11-10T12:28:13.040Z,101231.78
2022-11-10T12:31:03.944Z,101220.28
2022-11-10T12:33:51.755Z,101234.53
2022-11-10T12:36:38.814Z,101237.03
2022-11-10T12:39:29.678Z,101238.41
2022-11-10T12:42:18.343Z,101238.88
2022-11-10T12:45:06.595Z,101240.22
2022-11-10T12:47:55.575Z,101251.41
2022-11-10T12:50:45.514Z,101259.41
2022-11-10T12:53:33.869Z,101242.25
2022-11-10T12:56:22.502Z,101241.41
2022-11-10T12:59:29.980Z,101236.03
2022-11-10T13:02:20.468Z,101243.44
2022-11-10T13:05:22.551Z,101238.34
2022-11-10T13:08:27.486Z,101243.53
2022-11-10T13:11:26.066Z,101247.31
2022-11-10T13:14:23.810Z,101247.28
2022-11-10T13:17:11.850Z,101258.41
2022-11-10T13:20:14.236Z,101274.63
2022-11-10T13:26:03.219Z,101274.25
2022-11-10T13:28:59.992Z,101269.69
2022-11-10T13:31:54.043Z,101266.00
2022-11-10T13:34:40.981Z,101268.38
2022-11-10T13:37:51.518Z,101270.31
2022-11-10T13:40:39.447Z,101264.78
2022-11-10T13:43:28.665Z,101262.22
2022-11-10T13:46:15.096Z,101268.13
2022-11-10T13:49:15.826Z,101271.97
2022-11-10T13:52:07.328Z,101267.19
2022-11-10T13:55:01.172Z,101272.00
2022-11-10T13:57:58.025Z,101275.47
2022-11-10T14:00:49.286Z,101279.91
2022-11-10T14:03:54.660Z,101271.19
2022-11-10T14:06:44.561Z,101265.38
2022-11-10T14:09:33.461Z,101268.72
2022-11-10T14:12:24.486Z,101266.13
2022-11-10T14:15:15.689Z,101278.03
2022-11-10T14:18:04.310Z,101278.94
2022-11-10T14:20:55.695Z,101281.03
2022-11-10T14:23:45.298Z,101284.25
2022-11-10T14:26:34.283Z,101286.78
2022-11-10T14:29:22.209Z,101288.50
2022-11-10T14:32:15.043Z,101286.31
2022-11-10T14:35:03.473Z,101286.16
2022-11-10T14:37:50.575Z,101286.16
2022-11-10T14:40:42.350Z,101291.28
2022-11-10T14:43:30.488Z,101290.91
2022-11-10T14:46:17.175Z,101294.94
2022-11-10T14:49:04.559Z,101293.25
2022-11-10T14:51:56.319Z,101303.00
2022-11-10T14:54:45.240Z,101308.63
2022-11-10T14:57:31.818Z,101309.34
2022-11-10T15:00:19.721Z,101308.91
2022-11-10T15:03:07.131Z,101318.25
2022-11-10T15:05:53.695Z,101319.69
2022-11-10T15:08:41.816Z,101320.22
2022-11-10T15:11:35.454Z,101322.97
2022-11-10T15:14:38.364Z,101325.63
2022-11-10T15:17:43.926Z,101324.44
2022-11-10T15:20:31.503Z,101321.09
2022-11-10T15:23:22.272Z,101312.25
2022-11-10T15:26:20.584Z,101316.03
2022-11-10T15:29:06.947Z,101309.75
2022-11-10T15:31:54.377Z,101314.41
2022-11-10T15:34:42.692Z,101312.63
2022-11-10T15:37:31.239Z,101308.53
2022-11-10T15:40:37.446Z,101305.91
2022-11-10T15:43:28.663Z,101307.75
2022-11-10T15:46:18.408Z,101309.25
2022-11-10T15:49:05.536Z,101312.13
2022-11-10T15:51:53.319Z,101310.34
2022-11-10T15:54:40.367Z,101314.56
2022-11-10T15:57:26.559Z,101320.34
2022-11-10T16:00:14.960Z,101321.50
2022-11-10T16:03:01.281Z,101324.88
2022-11-10T16:05:48.531Z,101331.69
2022-11-10T16:08:35.683Z,101331.97
2022-11-10T16:11:23.091Z,101335.69
2022-11-10T16:14:14.241Z,101339.53
2022-11-10T16:17:01.892Z,101340.22
2022-11-10T16:19:48.435Z,101340.88
2022-11-10T16:22:35.725Z,101332.97
2022-11-10T16:25:27.635Z,101344.63
2022-11-10T16:28:16.554Z,101340.22
2022-11-10T16:31:03.188Z,101341.63
2022-11-10T16:33:50.991Z,101342.47
2022-11-10T16:36:37.532Z,101342.47
2022-11-10T16:39:25.387Z,101351.34
2022-11-10T16:42:12.136Z,101349.47
2022-11-10T16:44:59.225Z,101348.00
2022-11-10T16:47:46.889Z,101364.75
2022-11-10T16:50:37.298Z,101358.13
2022-11-10T16:53:24.940Z,101353.28
2022-11-10T16:56:13.984Z,101349.38
2022-11-10T16:59:00.798Z,101346.97
2022-11-10T17:01:48.852Z,101348.09
2022-11-10T17:04:36.281Z,101365.09
2022-11-10T17:07:26.212Z,101373.31
2022-11-10T17:10:14.983Z,101377.53
2022-11-10T17:13:01.628Z,101381.28
2022-11-10T17:15:48.549Z,101392.38
2022-11-10T17:18:36.518Z,101396.09
2022-11-10T17:21:26.236Z,101394.97
2022-11-10T17:24:19.123Z,101400.31
2022-11-10T17:27:05.830Z,101396.41
2022-11-10T17:29:52.138Z,101401.19
2022-11-10T17:33:03.543Z,101405.19
2022-11-10T17:35:47.011Z,101417.47
2022-11-10T17:38:34.092Z,101428.19
2022-11-10T17:41:22.594Z,101433.53
2022-11-10T17:44:13.131Z,101431.78
2022-11-10T17:46:59.556Z,101432.13
2022-11-10T17:49:46.240Z,101428.53
2022-11-10T17:52:33.204Z,101426.81
2022-11-10T17:55:22.699Z,101437.97
2022-11-10T17:58:10.957Z,101439.78
2022-11-10T18:00:57.755Z,101438.81
2022-11-10T18:03:44.009Z,101428.44
2022-11-10T18:06:33.987Z,101437.09
2022-11-10T18:09:20.545Z,101432.38
2022-11-10T18:12:06.789Z,101439.09
2022-11-10T18:14:54.251Z,101433.69
2022-11-10T18:17:41.751Z,101438.78
2022-11-10T18:20:28.872Z,101439.56
2022-11-10T18:23:15.094Z,101440.03
2022-11-10T18:26:04.377Z,101438.47
2022-11-10T18:28:51.705Z,101438.22
2022-11-10T18:31:40.222Z,101437.78
2022-11-10T18:34:26.854Z,101441.53
2022-11-10T18:37:13.223Z,101452.69
2022-11-10T18:39:59.530Z,101444.13
2022-11-10T18:42:46.107Z,101451.06
2022-11-10T18:45:32.361Z,101451.19
2022-11-10T18:48:27.217Z,101460.63
2022-11-10T18:51:16.356Z,101458.97
2022-11-10T18:54:03.800Z,101465.88
2022-11-10T18:56:49.852Z,101462.63
2022-11-10T18:59:36.812Z,101463.81
2022-11-10T19:02:23.513Z,101466.13
2022-11-10T19:05:17.010Z,101474.22
2022-11-10T19:08:04.237Z,101480.47
2022-11-10T19:10:51.667Z,101478.75
2022-11-10T19:13:38.936Z,101483.41
2022-11-10T19:16:25.799Z,101467.22
2022-11-10T19:19:12.488Z,101477.94
2022-11-10T19:22:01.160Z,101482.56
2022-11-10T19:25:06.483Z,101497.69
2022-11-10T19:27:54.495Z,101503.72
2022-11-10T19:30:50.151Z,101514.75
2022-11-10T19:33:37.692Z,101511.91
2022-11-10T19:36:24.915Z,101507.88
2022-11-10T19:39:13.592Z,101517.78
2022-11-10T19:41:59.641Z,101524.50
2022-11-10T19:44:46.551Z,101515.31
2022-11-10T19:47:33.044Z,101514.09
2022-11-10T19:50:19.730Z,101513.38
2022-11-10T19:52:48.324Z,101509.41
2022-11-10T19:55:36.813Z,101517.19
2022-11-10T19:58:25.073Z,101517.25
2022-11-10T20:01:12.301Z,101513.81
2022-11-10T20:04:00.739Z,101502.72
2022-11-10T20:07:09.155Z,101498.53
2022-11-10T20:09:56.457Z,101505.50
2022-11-10T20:12:46.273Z,101505.69
2022-11-10T20:15:36.503Z,101518.03
2022-11-10T20:18:23.475Z,101524.91
2022-11-10T20:21:11.666Z,101522.25
2022-11-10T20:23:58.414Z,101517.88
2022-11-10T20:26:45.775Z,101515.44
2022-11-10T20:29:34.836Z,101524.19
2022-11-10T20:32:22.174Z,101528.44
2022-11-10T20:35:08.858Z,101526.09
2022-11-10T20:37:55.416Z,101522.66
2022-11-10T20:40:44.764Z,101512.63
2022-11-10T20:43:34.064Z,101524.69
2022-11-10T20:46:48.341Z,101519.41
2022-11-10T20:49:31.184Z,101520.22
2022-11-10T20:52:18.845Z,101516.72
2022-11-10T20:55:07.375Z,101512.63
2022-11-10T21:00:43.346Z,101522.31
2022-11-10T21:03:31.914Z,101524.34
2022-11-10T21:06:18.850Z,101522.03
2022-11-10T21:09:07.082Z,101512.84
2022-11-10T21:12:11.153Z,101507.09
2022-11-10T21:14:58.196Z,101501.50
2022-11-10T21:17:45.308Z,101510.69
2022-11-10T21:20:35.317Z,101516.81
2022-11-10T21:23:22.399Z,101508.22
2022-11-10T21:26:09.394Z,101527.81
2022-11-10T21:28:56.883Z,101529.88
2022-11-10T21:31:43.126Z,101528.81
2022-11-10T21:34:30.267Z,101527.97
2022-11-10T21:37:18.998Z,101522.53
2022-11-10T21:40:06.777Z,101521.72
2022-11-10T21:42:57.113Z,101517.25
2022-11-10T21:45:46.116Z,101512.41
2022-11-10T21:48:33.831Z,101519.16
2022-11-10T21:51:22.860Z,101522.13
2022-11-10T21:54:12.471Z,101525.41
2022-11-10T21:56:59.538Z,101529.63
2022-11-10T21:59:46.553Z,101535.03
2022-11-10T22:02:36.287Z,101530.81
2022-11-10T22:05:23.199Z,101524.97
2022-11-10T22:08:09.936Z,101525.06
2022-11-10T22:11:15.291Z,101529.31
2022-11-10T22:14:19.568Z,101521.94
2022-11-10T22:17:31.552Z,101525.97
2022-11-10T22:20:17.999Z,101528.81
2022-11-10T22:23:04.751Z,101522.81
2022-11-10T22:25:51.411Z,101529.69
2022-11-10T22:28:41.995Z,101545.47
2022-11-10T22:31:28.799Z,101531.44
2022-11-10T22:34:15.323Z,101533.44
2022-11-10T22:37:01.848Z,101530.25
2022-11-10T22:40:05.842Z,101528.38
2022-11-10T22:43:09.816Z,101527.63
2022-11-10T22:45:57.737Z,101530.13
2022-11-10T22:48:44.070Z,101534.53
2022-11-10T22:51:31.645Z,101528.84
2022-11-10T22:54:19.602Z,101531.09
2022-11-10T22:57:06.979Z,101529.44
2022-11-10T22:59:53.571Z,101521.84
2022-11-10T23:02:41.172Z,101529.78
2022-11-10T23:05:27.811Z,101534.06
2022-11-10T23:08:14.207Z,101535.88
2022-11-10T23:11:01.705Z,101536.34
2022-11-10T23:13:49.702Z,101524.16
2022-11-10T23:16:36.097Z,101523.34
2022-11-10T23:19:24.060Z,101525.78
2022-11-10T23:22:10.354Z,101535.31
2022-11-10T23:24:57.615Z,101534.41
2022-11-10T23:27:46.629Z,101529.31
2022-11-10T23:30:33.850Z,101531.09
2022-11-10T23:33:20.627Z,101530.41
2022-11-10T23:36:10.221Z,101527.03
2022-11-10T23:38:57.004Z,101526.91
2022-11-10T23:41:43.018Z,101521.88
2022-11-10T23:44:29.413Z,101529.53
2022-11-10T23:47:15.731Z,101538.13
2022-11-10T23:50:01.840Z,101542.34
2022-11-10T23:52:50.175Z,101545.66
2022-11-10T23:55:38.647Z,101543.69
2022-11-10T23:58:25.542Z,101548.22
